Time;durP1;ratioP1;P1;durP2;ratioP2;P2;SDS_P1;SDS_P2;PMS_P1;PMS_P2;Temp;Humidity;BMP_temperature;BMP_pressure;BME280_temperature;BME280_humidity;BME280_pressure;Samples;Min_cycle;Max_cycle;Signal;HPM_P1;HPM_P2
2021/08/30 00:00:04;;;;;;;9.18;5.65;;;;;;;16.39;65.12;99324.75;4345390;33;34310;-91
2021/08/30 00:02:32;;;;;;;12.05;5.70;;;;;;;16.30;65.31;99327.66;4345522;33;33560;-90
2021/08/30 00:05:02;;;;;;;5.07;4.50;;;;;;;16.30;65.30;99325.06;4345566;33;32914;-90
2021/08/30 00:07:29;;;;;;;5.95;4.30;;;;;;;16.40;64.92;99331.75;4345300;33;34239;-91
2021/08/30 00:09:57;;;;;;;5.50;4.28;;;;;;;16.38;64.97;99332.69;4330599;33;34280;-91
2021/08/30 00:12:25;;;;;;;4.85;4.12;;;;;;;16.37;64.98;99334.44;4343752;33;33267;-91
2021/08/30 00:14:54;;;;;;;4.82;4.22;;;;;;;16.33;65.09;99327.56;4357376;32;33406;-91
2021/08/30 00:17:23;;;;;;;6.25;4.18;;;;;;;16.55;64.48;99344.41;4345373;33;34481;-90
2021/08/30 00:19:51;;;;;;;4.78;4.28;;;;;;;16.45;64.62;99329.81;4345466;33;33426;-91
2021/08/30 00:22:18;;;;;;;6.15;4.28;;;;;;;16.39;64.74;99343.13;4345369;33;33494;-91
2021/08/30 00:24:46;;;;;;;5.35;4.45;;;;;;;16.52;64.39;99344.50;4345219;33;33516;-91
2021/08/30 00:27:13;;;;;;;7.62;4.45;;;;;;;16.33;64.93;99342.47;4345530;33;34058;-91
2021/08/30 00:29:41;;;;;;;9.02;4.43;;;;;;;16.41;64.73;99349.19;4345176;33;34502;-91
2021/08/30 00:32:08;;;;;;;4.95;4.35;;;;;;;16.43;64.87;99350.00;4332896;33;34605;-91
2021/08/30 00:34:36;;;;;;;6.78;4.03;;;;;;;16.43;65.07;99352.63;4345375;33;34089;-91
2021/08/30 00:37:04;;;;;;;4.40;4.00;;;;;;;16.44;65.08;99351.72;4333183;33;33855;-91
2021/08/30 00:39:32;;;;;;;6.37;4.40;;;;;;;16.51;65.02;99347.13;4333137;33;34147;-91
2021/08/30 00:41:59;;;;;;;6.70;4.12;;;;;;;16.51;65.11;99357.62;4345361;33;34016;-91
2021/08/30 00:44:28;;;;;;;5.00;4.22;;;;;;;16.60;64.94;99350.38;4333291;33;34007;-91
2021/08/30 00:46:56;;;;;;;4.95;4.50;;;;;;;16.64;64.99;99354.59;4345537;33;34551;-91
2021/08/30 00:49:24;;;;;;;7.93;4.25;;;;;;;16.70;65.01;99346.56;4346092;33;34095;-90
2021/08/30 00:51:52;;;;;;;4.97;4.47;;;;;;;16.50;65.45;99355.91;4366568;32;33177;-90
2021/08/30 00:54:24;;;;;;;4.72;4.30;;;;;;;16.52;65.32;99359.41;4344827;33;35348;-89
2021/08/30 00:56:51;;;;;;;6.40;4.43;;;;;;;16.52;65.29;99351.53;4357066;33;34071;-92
2021/08/30 00:59:19;;;;;;;5.78;4.35;;;;;;;16.60;65.06;99347.75;4356081;33;34010;-91
2021/08/30 01:01:46;;;;;;;9.45;4.80;;;;;;;16.59;65.26;99346.00;4346450;33;33565;-91
2021/08/30 01:04:17;;;;;;;6.93;4.68;;;;;;;16.50;65.44;99353.28;4333053;33;34066;-91
2021/08/30 01:06:55;;;;;;;8.18;4.40;;;;;;;16.55;65.43;99352.28;4345235;33;35463;-92
2021/08/30 01:09:27;;;;;;;4.40;4.00;;;;;;;16.56;65.40;99354.00;4344955;33;34145;-92
2021/08/30 01:12:08;;;;;;;4.85;4.35;;;;;;;16.69;64.91;99346.56;4344958;33;32795;-92
2021/08/30 01:14:42;;;;;;;6.20;4.23;;;;;;;16.34;65.96;99349.41;4345183;33;33531;-92
2021/08/30 01:17:10;;;;;;;4.60;4.10;;;;;;;16.17;66.79;99347.31;4344792;33;34148;-92
2021/08/30 01:20:04;;;;;;;4.80;3.97;;;;;;;16.28;66.47;99353.09;4344761;33;33571;-92
2021/08/30 01:22:34;;;;;;;6.03;4.35;;;;;;;16.37;66.54;99358.06;4295676;33;33565;-91
2021/08/30 01:25:03;;;;;;;4.65;3.92;;;;;;;16.37;66.37;99355.44;4345061;33;34198;-92
2021/08/30 01:27:31;;;;;;;5.78;4.12;;;;;;;16.47;66.13;99349.00;4332605;33;34626;-92
2021/08/30 01:30:05;;;;;;;4.87;4.45;;;;;;;16.59;65.68;99348.62;4332511;33;33871;-92
2021/08/30 01:32:48;;;;;;;4.65;4.15;;;;;;;16.63;65.61;99355.53;4341411;33;33525;-91
2021/08/30 01:35:18;;;;;;;6.50;4.43;;;;;;;16.63;65.37;99354.66;4357317;32;33463;-91
2021/08/30 01:37:48;;;;;;;4.90;4.20;;;;;;;16.61;65.31;99349.47;4344466;33;34005;-91
2021/08/30 01:40:17;;;;;;;6.03;4.12;;;;;;;16.45;65.64;99356.06;4344712;33;34181;-91
2021/08/30 01:42:48;;;;;;;4.68;4.20;;;;;;;16.42;65.56;99353.53;4348512;32;33737;-92
2021/08/30 01:45:36;;;;;;;6.93;4.50;;;;;;;16.42;65.49;99352.69;4330731;33;34178;-92
2021/08/30 01:48:05;;;;;;;6.62;4.85;;;;;;;16.35;65.71;99357.25;4334539;33;34010;-93
2021/08/30 01:51:16;;;;;;;9.23;4.62;;;;;;;16.36;65.86;99361.59;4327869;33;34179;-92
2021/08/30 01:53:46;;;;;;;6.45;4.80;;;;;;;16.33;65.92;99353.78;4356874;32;33021;-92
2021/08/30 01:56:17;;;;;;;6.05;4.75;;;;;;;16.35;65.82;99357.25;4331850;33;33453;-92
2021/08/30 02:01:49;;;;;;;7.32;4.93;;;;;;;15.96;67.30;99354.03;4318888;33;35386;-93
2021/08/30 02:04:40;;;;;;;6.53;5.75;;;;;;;16.04;67.13;99343.34;4313663;33;34699;-92
2021/08/30 02:07:08;;;;;;;9.38;6.12;;;;;;;16.09;67.22;99344.91;4310133;33;33754;-92
2021/08/30 02:09:36;;;;;;;9.45;5.65;;;;;;;16.12;67.03;99338.69;4298353;33;33751;-92
2021/08/30 02:12:05;;;;;;;6.65;5.57;;;;;;;16.06;67.24;99345.00;4334620;33;33532;-92
2021/08/30 02:14:32;;;;;;;11.52;6.53;;;;;;;16.02;67.28;99339.91;4322330;33;32824;-92
2021/08/30 02:17:02;;;;;;;8.13;6.18;;;;;;;16.00;67.55;99336.44;4298457;33;33263;-93
2021/08/30 02:19:55;;;;;;;7.53;6.32;;;;;;;16.21;66.85;99343.69;4322424;33;35516;-93
2021/08/30 02:22:39;;;;;;;8.95;6.28;;;;;;;16.22;66.76;99341.03;4310321;33;33588;-93
2021/08/30 02:25:18;;;;;;;12.32;6.82;;;;;;;16.24;66.93;99341.81;4322389;33;33713;-94
2021/08/30 02:27:49;;;;;;;7.10;5.93;;;;;;;15.99;67.53;99332.13;4321973;33;32544;-94
2021/08/30 02:30:34;;;;;;;9.00;5.95;;;;;;;16.18;66.87;99334.16;4334552;33;33917;-94
2021/08/30 02:33:23;;;;;;;7.40;6.50;;;;;;;16.25;66.77;99334.81;4334097;33;34470;-94
2021/08/30 02:35:51;;;;;;;6.75;6.07;;;;;;;15.93;67.72;99333.16;4322510;33;33520;-94
2021/08/30 02:39:00;;;;;;;8.30;6.03;;;;;;;15.88;67.92;99337.66;4330005;33;34115;-93
2021/08/30 02:41:28;;;;;;;9.13;6.82;;;;;;;16.06;67.32;99338.91;4309738;33;34056;-93
2021/08/30 02:43:57;;;;;;;7.60;6.00;;;;;;;16.24;66.78;99335.72;4297940;33;33819;-93
2021/08/30 02:46:25;;;;;;;8.02;6.60;;;;;;;16.16;66.91;99337.72;4321702;33;33786;-93
2021/08/30 02:48:55;;;;;;;10.05;6.72;;;;;;;16.05;67.18;99337.16;4346014;33;33425;-94
2021/08/30 02:51:24;;;;;;;8.98;6.50;;;;;;;16.17;66.87;99337.66;4309988;33;34862;-93
2021/08/30 02:53:53;;;;;;;6.97;6.28;;;;;;;16.06;67.23;99333.66;4321843;33;34235;-94
2021/08/30 02:57:00;;;;;;;9.30;6.20;;;;;;;16.21;66.72;99333.22;4311329;33;33748;-93
2021/08/30 02:59:28;;;;;;;7.40;6.30;;;;;;;16.10;66.91;99340.50;4334071;33;34268;-92
2021/08/30 03:02:07;;;;;;;9.13;6.95;;;;;;;16.06;67.17;99336.28;4334067;33;34905;-92
2021/08/30 03:04:36;;;;;;;7.50;6.53;;;;;;;15.94;67.48;99334.00;4346365;33;33604;-93
2021/08/30 03:07:46;;;;;;;9.52;6.07;;;;;;;16.09;66.91;99339.66;4342584;33;34221;-92
2021/08/30 03:10:14;;;;;;;7.25;6.43;;;;;;;16.10;66.91;99330.03;4321941;33;33404;-92
2021/08/30 03:13:08;;;;;;;8.02;6.05;;;;;;;16.20;66.64;99328.84;4347098;33;34044;-92
2021/08/30 03:15:48;;;;;;;7.35;5.20;;;;;;;16.11;67.00;99331.75;4361902;32;33586;-94
2021/08/30 03:18:41;;;;;;;7.72;6.10;;;;;;;15.92;67.30;99335.81;4341262;32;33035;-94
2021/08/30 03:21:09;;;;;;;8.95;5.68;;;;;;;16.04;67.27;99338.97;4339074;32;34341;-94
2021/08/30 03:23:38;;;;;;;9.35;6.97;;;;;;;15.93;67.32;99337.53;4338967;32;34938;-93
2021/08/30 03:26:06;;;;;;;8.35;6.18;;;;;;;16.21;66.66;99341.91;4339210;32;33586;-94
2021/08/30 03:28:34;;;;;;;8.85;6.00;;;;;;;16.25;66.15;99334.81;4351115;32;33494;-93
2021/08/30 03:31:10;;;;;;;10.43;5.57;;;;;;;16.27;66.27;99331.25;4339665;32;33435;-94
2021/08/30 03:33:40;;;;;;;6.47;5.87;;;;;;;16.32;65.91;99328.47;4363708;32;34632;-95
2021/08/30 03:36:09;;;;;;;8.15;5.93;;;;;;;16.31;65.83;99332.00;4350780;32;33521;-93
2021/08/30 03:38:38;;;;;;;7.32;6.12;;;;;;;16.12;65.83;99321.22;4350881;32;32842;-94
2021/08/30 03:41:06;;;;;;;6.68;6.03;;;;;;;16.17;65.89;99334.19;4350955;32;34325;-93
2021/08/30 03:43:35;;;;;;;8.00;6.15;;;;;;;16.24;65.92;99333.97;4338685;32;34819;-94
2021/08/30 03:46:03;;;;;;;7.60;6.55;;;;;;;16.25;65.62;99340.94;4350854;32;33605;-92
2021/08/30 03:48:31;;;;;;;7.93;6.45;;;;;;;16.22;64.89;99334.91;4363242;32;33241;-93
2021/08/30 03:51:00;;;;;;;7.47;6.78;;;;;;;16.24;64.61;99335.72;4326209;32;34788;-93
2021/08/30 03:53:29;;;;;;;7.95;6.72;;;;;;;16.05;65.52;99338.03;4338820;32;34054;-93
2021/08/30 03:55:58;;;;;;;7.10;6.43;;;;;;;16.02;65.54;99339.91;4338966;32;33524;-94
2021/08/30 03:59:03;;;;;;;6.95;6.12;;;;;;;16.01;65.41;99343.41;4363700;32;33521;-93
2021/08/30 04:01:31;;;;;;;7.03;6.32;;;;;;;16.11;65.12;99345.75;4363662;32;33435;-94
2021/08/30 04:04:32;;;;;;;7.05;6.35;;;;;;;16.09;65.21;99349.31;4332071;33;33600;-93
2021/08/30 04:07:01;;;;;;;8.60;6.68;;;;;;;15.76;65.84;99353.72;4321786;33;33419;-93
2021/08/30 04:09:37;;;;;;;9.68;6.37;;;;;;;15.72;66.00;99354.72;4333415;33;33001;-92
2021/08/30 04:12:05;;;;;;;7.93;6.90;;;;;;;15.76;65.70;99366.00;4345520;33;33805;-93
2021/08/30 04:14:41;;;;;;;8.15;6.93;;;;;;;15.81;65.98;99369.37;4333815;33;33960;-92
2021/08/30 04:17:11;;;;;;;9.75;7.50;;;;;;;15.74;66.26;99370.41;4345697;33;33747;-92
2021/08/30 04:19:39;;;;;;;7.68;6.87;;;;;;;15.71;66.26;99374.00;4333811;33;32843;-92
2021/08/30 04:22:08;;;;;;;7.90;6.87;;;;;;;15.83;65.85;99376.25;4333931;33;33968;-93
2021/08/30 04:24:37;;;;;;;11.20;7.30;;;;;;;15.75;65.97;99385.25;4342395;33;108131;-93
2021/08/30 04:27:07;;;;;;;9.15;7.18;;;;;;;15.73;66.23;99381.81;4333503;33;33654;-93
2021/08/30 04:29:36;;;;;;;8.95;7.78;;;;;;;15.79;65.90;99382.50;4333395;33;32604;-92
2021/08/30 04:32:08;;;;;;;10.30;6.78;;;;;;;15.96;65.54;99395.16;4333547;33;34548;-92
2021/08/30 04:34:38;;;;;;;8.23;7.43;;;;;;;15.95;65.63;99380.31;4333297;33;33852;-93
2021/08/30 04:37:26;;;;;;;8.75;7.85;;;;;;;15.84;65.93;99382.38;4333470;33;33710;-93
2021/08/30 04:40:14;;;;;;;8.68;7.25;;;;;;;15.86;65.87;99380.56;4343966;33;33643;-92
2021/08/30 04:42:46;;;;;;;8.20;7.37;;;;;;;15.99;65.75;99384.56;4333729;33;33968;-93
2021/08/30 04:45:13;;;;;;;7.60;6.90;;;;;;;16.01;65.57;99386.25;4321577;33;33925;-88
2021/08/30 04:48:10;;;;;;;8.75;7.15;;;;;;;16.08;65.09;99385.16;4330400;33;36443;-91
2021/08/30 04:50:53;;;;;;;8.20;7.25;;;;;;;16.02;65.03;99389.75;4344933;33;33323;-91
2021/08/30 04:53:34;;;;;;;7.90;7.10;;;;;;;15.91;65.99;99391.78;4325800;33;34685;-92
2021/08/30 04:56:12;;;;;;;11.30;7.03;;;;;;;15.92;65.35;99391.75;4345756;33;35783;-93
2021/08/30 04:59:20;;;;;;;8.90;7.43;;;;;;;16.00;65.33;99392.38;4321770;33;33441;-93
2021/08/30 05:01:52;;;;;;;9.00;7.72;;;;;;;15.99;65.73;99401.19;4332752;33;33321;-92
2021/08/30 05:04:20;;;;;;;8.18;7.35;;;;;;;16.07;65.34;99396.56;4333278;33;34154;-92
2021/08/30 05:06:49;;;;;;;7.87;7.10;;;;;;;16.16;65.43;99403.31;4333424;33;35484;-92
2021/08/30 05:09:17;;;;;;;8.73;6.87;;;;;;;16.26;65.20;99391.63;4345073;33;33630;-91
2021/08/30 05:11:45;;;;;;;7.43;6.72;;;;;;;16.23;65.23;99400.47;4342952;33;32739;-92
2021/08/30 05:14:13;;;;;;;9.95;7.37;;;;;;;16.27;65.47;99398.59;4330501;33;34064;-91
2021/08/30 05:16:41;;;;;;;7.57;6.80;;;;;;;16.45;63.98;99400.66;4333024;33;33883;-91
2021/08/30 05:19:10;;;;;;;9.35;7.47;;;;;;;16.44;64.86;99398.97;4345126;33;33759;-92
2021/08/30 05:21:39;;;;;;;9.95;7.35;;;;;;;16.42;64.88;99394.66;4334155;33;33362;-92
2021/08/30 05:24:09;;;;;;;9.75;7.07;;;;;;;16.60;64.56;99389.75;4346734;33;33360;-93
2021/08/30 05:26:42;;;;;;;9.15;7.57;;;;;;;16.73;63.09;99396.34;4346508;33;34620;-92
2021/08/30 05:29:09;;;;;;;8.27;7.22;;;;;;;16.52;64.58;99391.75;4334482;33;33635;-93
2021/08/30 05:31:58;;;;;;;9.90;7.62;;;;;;;16.56;64.94;99393.38;4344709;33;32727;-92
2021/08/30 05:34:26;;;;;;;9.60;7.45;;;;;;;16.86;63.87;99399.44;4335106;33;33240;-93
2021/08/30 05:36:53;;;;;;;9.20;6.95;;;;;;;16.60;64.32;99395.00;4347240;33;34044;-92
2021/08/30 05:39:41;;;;;;;10.00;7.37;;;;;;;16.75;64.06;99394.53;4345630;33;33705;-92
2021/08/30 05:42:10;;;;;;;8.48;7.55;;;;;;;16.96;63.72;99392.13;4347024;33;32760;-94
2021/08/30 05:44:46;;;;;;;10.70;7.43;;;;;;;16.87;63.84;99398.53;4346047;33;34402;-94
2021/08/30 05:47:22;;;;;;;11.38;8.00;;;;;;;16.98;63.80;99390.28;4346242;33;36023;-91
2021/08/30 05:49:50;;;;;;;9.48;8.30;;;;;;;16.91;63.80;99392.25;4334039;33;33641;-89
2021/08/30 05:52:18;;;;;;;10.15;8.75;;;;;;;17.22;63.36;99392.13;4347247;33;33570;-87
2021/08/30 05:54:45;;;;;;;10.40;8.45;;;;;;;17.18;63.51;99395.78;4334486;33;34873;-90
2021/08/30 05:57:13;;;;;;;9.32;8.13;;;;;;;17.36;63.36;99400.41;4346669;33;33797;-89
2021/08/30 05:59:41;;;;;;;8.77;7.87;;;;;;;17.44;62.62;99398.37;4335087;33;34454;-92
2021/08/30 06:02:10;;;;;;;8.88;7.87;;;;;;;17.72;62.23;99391.28;4348991;33;32983;-96
2021/08/30 06:05:10;;;;;;;7.62;6.93;;;;;;;17.58;61.86;99396.16;4337333;33;34120;-92
2021/08/30 06:07:42;;;;;;;7.93;7.12;;;;;;;17.46;62.15;99396.56;4332716;33;34234;-94
2021/08/30 06:10:20;;;;;;;9.02;7.70;;;;;;;17.65;61.58;99402.06;4331638;33;34268;-91
2021/08/30 06:12:48;;;;;;;11.05;8.13;;;;;;;17.59;62.51;99401.34;4320100;33;32908;-93
2021/08/30 06:15:56;;;;;;;7.95;7.25;;;;;;;17.65;61.89;99399.44;4316313;33;33170;-93
2021/08/30 06:18:25;;;;;;;8.80;7.90;;;;;;;17.63;61.86;99404.75;4320647;33;33935;-93
2021/08/30 06:20:53;;;;;;;8.90;8.05;;;;;;;17.52;62.42;99409.50;4320520;33;33637;-95
2021/08/30 06:23:36;;;;;;;8.15;7.35;;;;;;;17.31;62.92;99402.31;4332201;33;32939;-95
2021/08/30 06:26:37;;;;;;;8.50;7.68;;;;;;;17.66;62.25;99402.03;4327757;33;33139;-95
2021/08/30 06:29:19;;;;;;;9.43;7.47;;;;;;;18.01;61.87;99403.38;4316425;33;34550;-93
2021/08/30 06:31:50;;;;;;;8.75;7.65;;;;;;;18.03;60.75;99405.06;4328536;33;33986;-94
2021/08/30 06:34:17;;;;;;;7.68;6.93;;;;;;;18.44;60.37;99407.91;4329872;33;32746;-94
2021/08/30 06:37:09;;;;;;;8.32;6.75;;;;;;;18.40;59.99;99406.31;4330550;33;33238;-93
2021/08/30 06:39:40;;;;;;;7.93;6.93;;;;;;;18.20;59.42;99402.66;4335389;33;33813;-94
2021/08/30 06:42:32;;;;;;;8.25;6.80;;;;;;;18.19;60.45;99403.56;4346765;33;33849;-94
2021/08/30 06:45:12;;;;;;;7.45;6.70;;;;;;;18.07;60.96;99409.28;4336834;33;32851;-94
2021/08/30 06:48:05;;;;;;;8.68;6.57;;;;;;;18.42;60.26;99407.13;4347817;33;33702;-95
2021/08/30 06:50:45;;;;;;;7.68;6.87;;;;;;;18.24;59.99;99400.75;4316926;33;33634;-95
2021/08/30 06:53:39;;;;;;;9.73;7.07;;;;;;;18.26;61.29;99398.94;4333329;33;34108;-95
2021/08/30 06:56:19;;;;;;;7.43;6.72;;;;;;;18.30;60.43;99400.56;4329676;33;33333;-95
2021/08/30 06:59:10;;;;;;;8.18;7.37;;;;;;;18.44;60.30;99403.50;4298336;33;33309;-93
2021/08/30 07:01:50;;;;;;;7.80;6.72;;;;;;;18.69;59.98;99404.31;4346855;33;34990;-94
2021/08/30 07:04:52;;;;;;;;;;;;;;;18.74;59.42;99402.34;4341529;32;34263;-93
2021/08/30 07:07:31;;;;;;;8.43;7.60;;;;;;;18.68;60.16;99404.38;4344496;33;33416;-93
2021/08/30 07:10:23;;;;;;;7.85;7.05;;;;;;;18.54;60.49;99404.06;4313590;33;33132;-94
2021/08/30 07:13:05;;;;;;;8.80;7.22;;;;;;;18.69;60.04;99412.22;4327570;33;33767;-94
2021/08/30 07:15:53;;;;;;;7.15;6.35;;;;;;;18.75;60.44;99411.12;4307309;33;33514;-95
2021/08/30 07:18:33;;;;;;;8.00;6.53;;;;;;;19.02;60.09;99411.81;4337088;32;32997;-92
2021/08/30 07:21:31;;;;;;;7.30;6.60;;;;;;;18.98;60.33;99415.47;4309978;33;34016;-94
2021/08/30 07:24:11;;;;;;;10.40;6.37;;;;;;;19.19;57.98;99404.91;4317797;33;33825;-92
2021/08/30 07:26:38;;;;;;;6.68;5.87;;;;;;;19.40;58.20;99411.09;4309971;33;33965;-90
2021/08/30 07:29:06;;;;;;;8.35;5.75;;;;;;;19.52;57.77;99408.81;4306484;33;33437;-94
2021/08/30 07:31:42;;;;;;;9.57;6.07;;;;;;;19.67;57.74;99406.44;4310378;33;33534;-92
2021/08/30 07:34:30;;;;;;;5.93;5.32;;;;;;;19.97;57.90;99410.34;4314289;33;35428;-93
2021/08/30 07:36:58;;;;;;;6.50;5.90;;;;;;;19.89;57.78;99420.41;4310129;33;34126;-91
2021/08/30 07:39:25;;;;;;;5.97;5.37;;;;;;;20.03;57.22;99420.66;4309246;33;33790;-91
2021/08/30 07:41:53;;;;;;;7.28;5.53;;;;;;;20.06;55.17;99418.72;4309037;33;34228;-92
2021/08/30 07:44:24;;;;;;;6.43;5.47;;;;;;;20.27;55.42;99409.03;4297557;33;34111;-95
2021/08/30 07:46:52;;;;;;;5.20;4.70;;;;;;;20.55;56.50;99422.69;4298050;33;34337;-93
2021/08/30 07:49:21;;;;;;;5.90;5.30;;;;;;;20.64;55.77;99424.88;4309903;33;32732;-93
2021/08/30 07:51:49;;;;;;;7.93;5.43;;;;;;;20.64;55.57;99429.31;4297868;33;34119;-89
2021/08/30 07:54:17;;;;;;;6.18;5.30;;;;;;;20.51;55.26;99426.41;4336515;33;34350;-96
2021/08/30 07:57:13;;;;;;;5.07;4.57;;;;;;;20.61;54.46;99427.66;4318802;33;34232;-94
2021/08/30 07:59:53;;;;;;;6.12;4.90;;;;;;;20.58;54.66;99424.31;4329272;33;33045;-92
2021/08/30 08:02:42;;;;;;;6.68;5.25;;;;;;;20.83;54.88;99428.38;4318980;33;34194;-91
2021/08/30 08:05:10;;;;;;;5.80;5.25;;;;;;;20.77;55.70;99436.63;4318648;33;34559;-91
2021/08/30 08:07:39;;;;;;;5.20;4.70;;;;;;;20.97;54.31;99432.16;4330464;33;33540;-91
2021/08/30 08:10:07;;;;;;;5.43;4.93;;;;;;;21.14;52.81;99425.16;4330591;33;32879;-91
2021/08/30 08:12:56;;;;;;;6.97;5.07;;;;;;;21.38;53.19;99428.38;4322711;33;33789;-91
2021/08/30 08:15:25;;;;;;;5.45;4.95;;;;;;;21.51;52.07;99432.97;4331870;33;33970;-90
2021/08/30 08:17:53;;;;;;;5.20;4.70;;;;;;;21.50;52.28;99438.34;4321177;33;34926;-90
2021/08/30 08:20:21;;;;;;;5.35;4.15;;;;;;;21.38;51.88;99434.53;4333432;33;34850;-90
2021/08/30 08:22:49;;;;;;;7.68;5.87;;;;;;;21.57;51.89;99434.44;4321296;33;33970;-92
2021/08/30 08:25:17;;;;;;;6.25;5.45;;;;;;;21.48;52.06;99435.78;4345608;33;35093;-93
2021/08/30 08:28:04;;;;;;;6.97;4.37;;;;;;;21.72;51.79;99438.97;4334641;33;34160;-93
2021/08/30 08:30:33;;;;;;;6.62;5.22;;;;;;;21.55;52.99;99441.62;4334502;33;33910;-93
2021/08/30 08:33:21;;;;;;;7.35;5.40;;;;;;;21.19;52.69;99439.00;4322271;33;33297;-93
2021/08/30 08:35:58;;;;;;;5.57;4.97;;;;;;;21.55;52.85;99441.62;4323355;33;35624;-93
2021/08/30 08:38:26;;;;;;;6.43;5.82;;;;;;;21.41;52.48;99446.75;4352339;33;33801;-90
2021/08/30 08:40:53;;;;;;;6.25;5.65;;;;;;;21.29;52.85;99439.41;4354230;33;33207;-92
2021/08/30 08:43:59;;;;;;;5.55;5.05;;;;;;;21.60;52.44;99447.53;4315015;33;33236;-94
2021/08/30 08:46:46;;;;;;;5.82;5.22;;;;;;;21.93;51.56;99448.50;4340154;33;35060;-92
2021/08/30 08:49:14;;;;;;;5.32;4.82;;;;;;;22.02;50.88;99448.00;4334379;33;33619;-92
2021/08/30 08:51:43;;;;;;;5.62;5.03;;;;;;;21.87;52.08;99459.37;4345708;33;32741;-91
2021/08/30 08:54:12;;;;;;;5.35;4.70;;;;;;;22.00;51.32;99456.97;4333513;33;33890;-92
2021/08/30 08:56:41;;;;;;;7.18;4.97;;;;;;;22.04;51.26;99455.84;4345523;33;34094;-91
2021/08/30 08:59:09;;;;;;;5.95;4.35;;;;;;;21.93;50.30;99459.09;4346714;33;33788;-95
2021/08/30 09:02:01;;;;;;;;;;;;;;;21.83;50.76;99460.44;4354519;32;32821;-94
2021/08/30 09:04:31;;;;;;;3.10;2.80;;;;;;;21.94;50.99;99466.06;4333831;33;34331;-93
2021/08/30 09:07:19;;;;;;;5.05;4.28;;;;;;;21.94;49.70;99457.31;4353364;32;33943;-92
2021/08/30 09:09:48;;;;;;;4.82;3.95;;;;;;;21.97;49.38;99463.28;4344784;33;33574;-91
2021/08/30 09:12:21;;;;;;;5.82;3.92;;;;;;;21.92;50.16;99467.94;4357235;32;32464;-92
2021/08/30 09:14:48;;;;;;;5.10;4.03;;;;;;;22.11;50.23;99460.75;4332717;33;33274;-89
2021/08/30 09:17:16;;;;;;;6.40;3.87;;;;;;;22.25;50.38;99460.03;4320191;33;33887;-90
2021/08/30 09:19:44;;;;;;;4.47;3.47;;;;;;;22.35;49.36;99460.41;4356836;32;33767;-89
2021/08/30 09:22:12;;;;;;;4.32;2.80;;;;;;;22.27;48.43;99464.31;4343688;33;33826;-90
2021/08/30 09:24:40;;;;;;;3.05;2.62;;;;;;;22.19;48.31;99463.88;4332103;33;34621;-87
2021/08/30 09:27:09;;;;;;;2.67;2.35;;;;;;;22.24;49.17;99460.97;4344169;33;34232;-87
2021/08/30 09:29:41;;;;;;;3.67;2.05;;;;;;;22.29;46.74;99461.59;4344080;33;34236;-89
2021/08/30 09:32:10;;;;;;;;;;;;;;;21.98;46.92;99467.66;4331904;33;32946;-89
2021/08/30 09:34:40;;;;;;;2.10;1.90;;;;;;;22.26;46.98;99461.75;4332263;33;34542;-88
2021/08/30 09:37:22;;;;;;;5.32;2.47;;;;;;;22.62;46.56;99456.31;4344244;33;35512;-87
2021/08/30 09:39:52;;;;;;;4.45;2.70;;;;;;;22.77;47.59;99458.13;4332167;33;33971;-91
2021/08/30 09:42:20;;;;;;;5.57;2.75;;;;;;;22.74;48.20;99463.59;4331960;33;33830;-91
2021/08/30 09:44:48;;;;;;;3.12;2.70;;;;;;;22.72;47.96;99465.47;4344385;33;33528;-91
2021/08/30 09:47:18;;;;;;;3.85;1.77;;;;;;;22.73;48.19;99467.16;4345789;33;35057;-88
2021/08/30 09:49:49;;;;;;;4.95;1.70;;;;;;;22.70;45.31;99462.88;4320339;33;34477;-88
2021/08/30 09:52:19;;;;;;;2.62;1.37;;;;;;;22.56;44.64;99462.75;4332229;33;33222;-90
2021/08/30 09:54:47;;;;;;;1.90;1.60;;;;;;;22.62;43.47;99464.25;4344005;33;33695;-89
2021/08/30 09:57:15;;;;;;;2.60;2.20;;;;;;;22.75;42.95;99465.28;4344192;33;35054;-89
2021/08/30 09:59:44;;;;;;;2.47;1.80;;;;;;;22.55;42.46;99465.50;4357755;32;33362;-90
2021/08/30 10:02:14;;;;;;;2.75;1.95;;;;;;;22.27;43.43;99478.50;4330158;33;33914;-91
2021/08/30 10:04:43;;;;;;;2.87;1.92;;;;;;;22.51;45.11;99472.75;4333300;33;34015;-91
2021/08/30 10:07:12;;;;;;;3.25;2.50;;;;;;;22.56;45.09;99476.00;4346237;33;34596;-91
2021/08/30 10:09:40;;;;;;;2.37;2.17;;;;;;;22.65;45.56;99464.97;4334171;33;33709;-91
2021/08/30 10:12:09;;;;;;;2.47;2.25;;;;;;;22.92;46.28;99472.34;4346792;33;33005;-89
2021/08/30 10:14:38;;;;;;;3.50;2.30;;;;;;;23.05;42.85;99468.91;4346260;33;35087;-90
2021/08/30 10:17:06;;;;;;;2.33;2.08;;;;;;;23.12;43.95;99472.94;4358319;32;35213;-91
2021/08/30 10:19:36;;;;;;;2.60;1.98;;;;;;;23.06;42.21;99473.25;4360290;32;33716;-91
2021/08/30 10:22:18;;;;;;;2.75;2.20;;;;;;;23.01;43.26;99471.81;4373596;32;33350;-89
2021/08/30 10:24:47;;;;;;;2.55;2.10;;;;;;;23.08;41.81;99462.59;4354876;32;34175;-90
2021/08/30 10:27:25;;;;;;;5.90;2.33;;;;;;;22.86;43.91;99458.47;4348257;33;34409;-89
2021/08/30 10:30:05;;;;;;;3.28;2.15;;;;;;;22.89;43.03;99473.38;4353876;32;33569;-90
2021/08/30 10:32:43;;;;;;;2.05;1.60;;;;;;;23.16;43.95;99466.50;4345918;33;33046;-90
2021/08/30 10:35:21;;;;;;;1.70;1.60;;;;;;;23.12;42.18;99466.75;4345468;33;33461;-89
2021/08/30 10:38:00;;;;;;;2.12;1.73;;;;;;;23.06;42.04;99465.31;4333541;33;33964;-90
2021/08/30 10:40:33;;;;;;;1.98;1.77;;;;;;;23.34;42.71;99460.13;4333386;33;33690;-90
2021/08/30 10:43:08;;;;;;;3.70;1.92;;;;;;;23.43;41.90;99464.09;4333743;33;32474;-88
2021/08/30 10:45:41;;;;;;;2.12;1.92;;;;;;;23.54;41.28;99473.16;4333400;33;33695;-89
2021/08/30 10:48:18;;;;;;;3.70;2.50;;;;;;;23.40;41.77;99473.09;4346475;33;35105;-90
2021/08/30 10:50:50;;;;;;;2.08;1.70;;;;;;;23.61;41.87;99464.81;4358521;32;33454;-89
2021/08/30 10:53:24;;;;;;;3.28;2.40;;;;;;;23.80;43.80;99468.09;4345862;33;34309;-91
2021/08/30 10:55:54;;;;;;;3.40;2.20;;;;;;;24.04;39.41;99461.34;4332271;33;33463;-90
2021/08/30 10:58:39;;;;;;;3.97;2.03;;;;;;;23.96;41.88;99463.62;4358732;32;35529;-89
2021/08/30 11:01:12;;;;;;;2.20;2.00;;;;;;;24.09;40.53;99469.91;4333564;33;34958;-91
2021/08/30 11:03:40;;;;;;;3.53;2.20;;;;;;;24.02;41.39;99471.19;4358185;32;33878;-94
2021/08/30 11:06:23;;;;;;;2.97;2.20;;;;;;;23.77;41.54;99468.31;4345745;33;33529;-90
2021/08/30 11:08:54;;;;;;;3.80;2.20;;;;;;;23.61;42.00;99473.66;4357709;32;34906;-91
2021/08/30 11:11:24;;;;;;;2.60;2.40;;;;;;;23.81;41.48;99477.78;4333564;33;35033;-92
2021/08/30 11:14:08;;;;;;;2.33;2.12;;;;;;;24.03;41.75;99467.63;4333133;33;33460;-90
2021/08/30 11:16:37;;;;;;;3.25;2.30;;;;;;;23.90;40.88;99486.06;4347252;33;33353;-91
2021/08/30 11:19:10;;;;;;;3.72;2.58;;;;;;;24.11;40.48;99473.34;4359637;32;34572;-90
2021/08/30 11:21:59;;;;;;;2.45;2.25;;;;;;;24.13;40.23;99471.44;4347950;33;34587;-91
2021/08/30 11:24:29;;;;;;;2.60;2.33;;;;;;;23.88;40.11;99465.88;4360288;32;34930;-93
2021/08/30 11:27:27;;;;;;;4.03;2.67;;;;;;;23.83;41.12;99468.78;4341230;33;33011;-92
2021/08/30 11:30:02;;;;;;;5.15;3.08;;;;;;;23.61;41.67;99468.34;4355544;32;34882;-93
2021/08/30 11:32:32;;;;;;;5.28;2.70;;;;;;;23.75;41.13;99475.50;4360001;32;33854;-89
2021/08/30 11:35:00;;;;;;;2.90;2.62;;;;;;;23.93;39.84;99466.44;4359702;32;33535;-89
2021/08/30 11:37:30;;;;;;;5.03;2.55;;;;;;;24.11;40.42;99458.25;4372608;32;34248;-92
2021/08/30 11:40:00;;;;;;;6.12;3.20;;;;;;;24.11;40.09;99462.72;4359495;32;34567;-94
2021/08/30 11:42:33;;;;;;;3.37;2.92;;;;;;;23.96;40.59;99463.62;4360016;32;34296;-89
2021/08/30 11:45:08;;;;;;;3.12;2.30;;;;;;;24.14;40.98;99465.19;4360070;32;32629;-92
2021/08/30 11:47:46;;;;;;;3.20;2.72;;;;;;;24.60;38.82;99466.75;4347559;33;33354;-93
2021/08/30 11:50:24;;;;;;;3.20;2.80;;;;;;;24.12;39.60;99473.25;4360443;32;34157;-91
2021/08/30 11:52:59;;;;;;;2.95;2.62;;;;;;;24.31;39.33;99464.16;4347916;33;34299;-92
2021/08/30 11:55:31;;;;;;;3.35;2.95;;;;;;;24.16;37.81;99464.16;4356387;32;33511;-92
2021/08/30 11:58:01;;;;;;;3.22;2.62;;;;;;;24.24;39.23;99455.72;4372412;32;33265;-90
2021/08/30 12:00:30;;;;;;;3.47;2.65;;;;;;;24.09;39.55;99453.97;4346845;33;34774;-91
2021/08/30 12:03:00;;;;;;;3.22;2.87;;;;;;;24.26;38.71;99467.09;4359654;32;34958;-89
2021/08/30 12:05:30;;;;;;;3.30;2.67;;;;;;;24.35;38.54;99455.91;4359208;32;33237;-89
2021/08/30 12:07:59;;;;;;;4.30;2.47;;;;;;;24.44;39.01;99460.63;4372178;32;33907;-87
2021/08/30 12:10:28;;;;;;;3.00;2.70;;;;;;;24.35;38.84;99460.34;4372437;32;33796;-91